Time;durP1;ratioP1;P1;durP2;ratioP2;P2;SDS_P1;SDS_P2;PMS_P1;PMS_P2;Temp;Humidity;BMP_temperature;BMP_pressure;BME280_temperature;BME280_humidity;BME280_pressure;Samples;Min_cycle;Max_cycle;Signal;HPM_P1;HPM_P2
2023/04/21 09:22:37;;;;;;;3.83;2.80;;;;;;;;;;21040473;28;20339;-71
2023/04/21 09:32:40;;;;;;;4.60;2.87;;;;;;;;;;20955601;28;20201;-70
2023/04/21 09:42:42;;;;;;;3.90;2.77;;;;;;;;;;20960048;28;20205;-71
2023/04/21 09:52:44;;;;;;;3.67;3.00;;;;;;;;;;20954419;28;20209;-72
2023/04/21 10:02:49;;;;;;;2.93;2.40;;;;;;;;;;20967487;28;20969;-71
2023/04/21 10:12:51;;;;;;;3.60;2.47;;;;;;;;;;20968610;28;20577;-71
2023/04/21 10:22:57;;;;;;;5.03;3.10;;;;;;;;;;21048932;28;20200;-72
2023/04/21 10:33:03;;;;;;;4.10;2.93;;;;;;;;;;20993501;28;20640;-72
2023/04/21 10:43:05;;;;;;;4.53;3.00;;;;;;;;;;20992175;28;20201;-72
2023/04/21 10:53:10;;;;;;;5.20;3.17;;;;;;;;;;20988532;28;20441;-72
2023/04/21 11:03:12;;;;;;;6.00;4.13;;;;;;;;;;20986960;28;20505;-72
2023/04/21 11:13:14;;;;;;;6.23;4.53;;;;;;;;;;20977144;28;20266;-72
2023/04/21 11:23:18;;;;;;;5.00;3.57;;;;;;;;;;20964165;28;20201;-71
2023/04/21 11:33:20;;;;;;;4.30;3.10;;;;;;;;;;20985085;28;20217;-71
2023/04/21 11:43:22;;;;;;;5.90;3.37;;;;;;;;;;20986979;28;20271;-71
2023/04/21 11:53:23;;;;;;;3.00;2.23;;;;;;;;;;20984020;28;20279;-71
2023/04/21 12:03:25;;;;;;;3.27;2.30;;;;;;;;;;20979483;28;20205;-71
2023/04/21 12:13:28;;;;;;;2.87;2.20;;;;;;;;;;20982025;28;20270;-71
2023/04/21 12:23:30;;;;;;;3.10;2.17;;;;;;;;;;20982577;28;20754;-71
2023/04/21 12:33:32;;;;;;;3.90;2.40;;;;;;;;;;20981864;28;20209;-71
2023/04/21 12:43:33;;;;;;;2.77;2.00;;;;;;;;;;20980664;28;20197;-71
2023/04/21 12:53:35;;;;;;;2.93;1.93;;;;;;;;;;20980548;28;20216;-71
2023/04/21 13:03:37;;;;;;;2.83;1.83;;;;;;;;;;20957602;28;20246;-71
2023/04/21 13:13:39;;;;;;;2.73;1.80;;;;;;;;;;20975831;28;20247;-71
2023/04/21 13:23:41;;;;;;;2.77;1.90;;;;;;;;;;20981823;28;20201;-71
2023/04/21 13:33:43;;;;;;;2.77;1.87;;;;;;;;;;20980801;28;20293;-71
2023/04/21 13:43:45;;;;;;;2.83;1.80;;;;;;;;;;20963095;28;20202;-71
2023/04/21 13:53:47;;;;;;;3.43;2.00;;;;;;;;;;20979597;28;20793;-71
2023/04/21 14:03:49;;;;;;;3.53;2.10;;;;;;;;;;20979938;28;20216;-71
2023/04/21 14:13:51;;;;;;;2.80;1.87;;;;;;;;;;20969275;28;20336;-71
2023/04/21 14:23:52;;;;;;;3.30;1.80;;;;;;;;;;20986315;28;20213;-68
2023/04/21 14:33:55;;;;;;;2.37;1.50;;;;;;;;;;20989613;28;20221;-68
2023/04/21 14:43:58;;;;;;;2.90;1.70;;;;;;;;;;20983241;28;20621;-68
2023/04/21 14:53:59;;;;;;;3.97;2.33;;;;;;;;;;20991970;28;20221;-68
2023/04/21 15:04:01;;;;;;;2.10;1.50;;;;;;;;;;20986963;28;20518;-68
2023/04/21 15:14:03;;;;;;;3.20;2.00;;;;;;;;;;20972902;28;20252;-69
2023/04/21 15:24:05;;;;;;;8.67;6.70;;;;;;;;;;20969741;28;20201;-69
2023/04/21 15:34:06;;;;;;;5.67;4.60;;;;;;;;;;20986000;28;20216;-69
2023/04/21 15:44:08;;;;;;;2.63;2.10;;;;;;;;;;20968650;28;20262;-69
2023/04/21 15:54:10;;;;;;;2.67;2.00;;;;;;;;;;20984947;28;20286;-69
2023/04/21 16:04:11;;;;;;;2.93;1.90;;;;;;;;;;20962844;28;20237;-70
2023/04/21 16:14:15;;;;;;;2.90;2.00;;;;;;;;;;20959265;28;20217;-73
2023/04/21 16:24:17;;;;;;;0.70;0.50;;;;;;;;;;20961401;28;20663;-73
2023/04/21 16:34:19;;;;;;;0.20;0.20;;;;;;;;;;20969071;28;20658;-73
2023/04/21 16:44:20;;;;;;;0.20;0.20;;;;;;;;;;20968970;28;20254;-73
2023/04/21 16:54:22;;;;;;;0.80;0.50;;;;;;;;;;20965562;28;20221;-73
2023/04/21 17:04:25;;;;;;;0.43;0.43;;;;;;;;;;20967497;28;20209;-73
2023/04/21 17:14:27;;;;;;;0.90;0.33;;;;;;;;;;20893706;28;20314;-72
2023/04/21 17:24:28;;;;;;;0.47;0.40;;;;;;;;;;20870464;28;20202;-73
2023/04/21 17:34:30;;;;;;;0.93;0.57;;;;;;;;;;20918651;28;20277;-72
2023/04/21 17:44:33;;;;;;;1.03;0.57;;;;;;;;;;20917979;28;20271;-73
2023/04/21 17:54:36;;;;;;;1.23;0.70;;;;;;;;;;20982493;28;20282;-73
2023/04/21 18:04:39;;;;;;;0.63;0.47;;;;;;;;;;20986869;28;20205;-73
2023/04/21 18:14:45;;;;;;;1.03;0.63;;;;;;;;;;20981906;28;20229;-73
2023/04/21 18:24:47;;;;;;;0.70;0.43;;;;;;;;;;20980200;28;20274;-73
2023/04/21 18:34:50;;;;;;;1.93;0.70;;;;;;;;;;20952359;28;20259;-73
2023/04/21 18:44:53;;;;;;;1.10;0.87;;;15.50;99.90;;;;;;20975093;28;20221;-73
2023/04/21 18:54:55;;;;;;;0.97;0.60;;;;;;;;;;20979554;28;20696;-73
2023/04/21 19:04:56;;;;;;;0.97;0.70;;;;;;;;;;20985940;28;20286;-73
2023/04/21 19:14:58;;;;;;;0.83;0.50;;;;;;;;;;20983499;28;20270;-72
2023/04/21 19:24:59;;;;;;;1.10;0.80;;;;;;;;;;20987855;28;20259;-73
2023/04/21 19:35:01;;;;;;;0.90;0.60;;;;;;;;;;20984320;28;20603;-73
2023/04/21 19:45:03;;;;;;;1.70;0.90;;;;;;;;;;20980486;28;20254;-73
2023/04/21 19:55:06;;;;;;;1.20;0.70;;;;;;;;;;20978478;28;20233;-73
2023/04/21 20:05:08;;;;;;;1.03;0.60;;;;;;;;;;20977913;28;20209;-74
2023/04/21 20:15:13;;;;;;;1.93;0.60;;;;;;;;;;20974355;28;20270;-74
2023/04/21 20:25:15;;;;;;;1.13;0.70;;;;;;;;;;20959766;28;20216;-74
2023/04/21 20:35:17;;;;;;;0.87;0.57;;;;;;;;;;20957873;28;20232;-75
2023/04/21 20:45:19;;;;;;;1.17;0.70;;;;;;;;;;20973856;28;21006;-74
2023/04/21 20:55:21;;;;;;;1.23;0.80;;;;;;;;;;20977115;28;20707;-73
2023/04/21 21:05:23;;;;;;;1.20;0.90;;;;;;;;;;20963472;28;20266;-72
2023/04/21 21:15:26;;;;;;;1.23;0.80;;;;;;;;;;20979044;28;20294;-72
2023/04/21 21:25:27;;;;;;;2.17;1.13;;;;;;;;;;20980820;28;20754;-72
2023/04/21 21:35:30;;;;;;;1.70;1.00;;;;;;;;;;20978670;28;20209;-72
2023/04/21 21:45:32;;;;;;;2.83;1.13;;;;;;;;;;20977122;28;20239;-72
2023/04/21 21:55:33;;;;;;;1.70;1.10;;;;;;;;;;20976876;28;20213;-73
2023/04/21 22:05:35;;;;;;;1.83;1.30;;;;;;;;;;20959629;28;20205;-72
2023/04/21 22:15:37;;;;;;;1.60;1.10;;;;;;;;;;20976444;28;20229;-71
2023/04/21 22:25:39;;;;;;;1.30;0.83;;;;;;;;;;20984759;28;20193;-71
2023/04/21 22:35:40;;;;;;;1.20;0.90;;;;;;;;;;20991355;28;20209;-73
2023/04/21 22:45:42;;;;;;;1.27;0.80;;;;;;;;;;20971469;28;20217;-71
2023/04/21 22:55:44;;;;;;;2.60;1.33;;;;;;;;;;20989630;28;20251;-71
2023/04/21 23:05:46;;;;;;;1.17;0.87;;;;;;;;;;20988826;28;20217;-71
2023/04/21 23:15:47;;;;;;;1.53;0.80;;;;;;;;;;20986681;28;20283;-71
2023/04/21 23:25:49;;;;;;;1.30;0.90;;;;;;;;;;20988392;28;20766;-72
2023/04/21 23:35:51;;;;;;;0.93;0.70;;;;;;;;;;20985230;28;20527;-71
2023/04/21 23:45:53;;;;;;;1.10;0.80;;;;;;;;;;20986911;28;20685;-71
2023/04/21 23:55:54;;;;;;;2.03;1.10;;;;;;;;;;20985315;28;20277;-71
